Isola Di Capri — IBBY — position and weather

sailwx.info

Track history (hours):
 
Tides and Currents Weather Stations Pressure Air Temp Water Temp Dewpoint Dewpoint Depression Visibility Wind Speed Wind Dir Waves Ship Positions

Isola Di Capri

Last reported at 2018-May-20 13:45 UTC. Time now 2018-May-20 14:07 UTC.
Position N 40°46' E 014°02'.

Length 71 m; draft 2.3 m.

Type: Ship. MMSI: 247300000.

Date/timePositionNaut miles runAvg speedWind from/ knotsBaromVisibWave heightAir tempDewpointWater temp
2018-May-20 13:45N 40°46' E 014°02'2 9.5
2018-May-20 13:30N 40°46' E 013°59'2 3.8
2018-May-20 12:59N 40°45' E 013°56'4 8.6
2018-May-20 12:30N 40°46' E 014°02'5 5.0
2018-May-20 11:26N 40°49' E 014°07'0 0.0
2018-May-20 10:56N 40°49' E 014°07'0 0.3
2018-May-20 10:30N 40°49' E 014°07'5 8.9
2018-May-20 09:55N 40°46' E 014°02'4 8.5
2018-May-20 09:25N 40°45' E 013°56'0 0.0
2018-May-20 08:55N 40°45' E 013°56'0 0.0
2018-May-20 08:25N 40°45' E 013°56'0 0.3
2018-May-20 07:59N 40°45' E 013°56'4 9.3
2018-May-20 07:30N 40°46' E 014°02'5 4.7
2018-May-20 06:27N 40°49' E 014°07'5 7.6
2018-May-20 05:46N 40°46' E 014°02'412.6
2018-May-20 05:26N 40°45' E 013°57'0 0.2
2018-May-20 04:45N 40°45' E 013°56'0 0.0
2018-May-20 04:24N 40°45' E 013°56'0 0.0
2018-May-20 03:54N 40°45' E 013°56'0 0.0
2018-May-20 03:27N 40°45' E 013°56'0 0.0
2018-May-20 02:57N 40°45' E 013°56'0 0.0
2018-May-20 02:27N 40°45' E 013°56'0 0.0
2018-May-20 02:00N 40°45' E 013°56'0 0.0
2018-May-20 01:30N 40°45' E 013°56'0 0.0
2018-May-20 01:00N 40°45' E 013°56'0 0.0
2018-May-20 00:30N 40°45' E 013°56'0 0.0
2018-May-19 23:57N 40°45' E 013°56'0 0.0
2018-May-19 23:30N 40°45' E 013°56'0 0.0
2018-May-19 23:00N 40°45' E 013°56'0 0.0
2018-May-19 22:30N 40°45' E 013°56'0 0.0
2018-May-19 21:48N 40°45' E 013°56'2 6.2
2018-May-19 21:30N 40°46' E 013°58'612.6
2018-May-19 21:00N 40°46' E 014°07'816.1
2018-May-19 20:30N 40°50' E 014°16'1 0.9
2018-May-19 19:50N 40°51' E 014°16'0 0.0
2018-May-19 19:27N 40°51' E 014°16'614.6
2018-May-19 19:01N 40°44' E 014°17'1019.0
2018-May-19 18:30N 40°35' E 014°15'1 2.1
2018-May-19 18:00N 40°34' E 014°15'713.9
2018-May-19 17:29N 40°38' E 014°23'510.4
2018-May-19 17:00N 40°36' E 014°17'2 3.0
2018-May-19 16:27N 40°34' E 014°16'818.0
2018-May-19 16:00N 40°42' E 014°17'9 8.6
2018-May-19 15:00N 40°51' E 014°16'3 5.4
2018-May-19 14:30N 40°48' E 014°17'917.9
2018-May-19 14:00N 40°39' E 014°16'610.4
2018-May-19 13:25N 40°33' E 014°14'4 9.5
2018-May-19 13:00N 40°36' E 014°18'4 7.0
2018-May-19 12:28N 40°38' E 014°23'2 3.8
2018-May-19 12:01N 40°38' E 014°21'7 7.9
2018-May-19 11:08N 40°33' E 014°14'1 8.2
2018-May-19 11:00N 40°34' E 014°15'918.9
2018-May-19 10:30N 40°44' E 014°17'7 6.4
2018-May-19 09:26N 40°51' E 014°16'715.3
2018-May-19 09:00N 40°44' E 014°17'919.2
2018-May-19 08:30N 40°35' E 014°15'1 2.2
2018-May-19 08:01N 40°34' E 014°15'714.0
2018-May-19 07:29N 40°38' E 014°23'4 8.4
2018-May-19 07:00N 40°36' E 014°18'4 6.9
2018-May-19 06:26N 40°33' E 014°14'715.5
2018-May-19 06:00N 40°38' E 014°20'2 3.6
2018-May-19 05:30N 40°38' E 014°23'810.0
2018-May-19 04:44N 40°33' E 014°14'415.6
2018-May-19 04:30N 40°37' E 014°16'1019.0
2018-May-19 04:00N 40°46' E 014°17'4 7.3
2018-May-19 03:24N 40°51' E 014°16'0 0.0
2018-May-19 02:39N 40°51' E 014°16'0 0.0
2018-May-19 02:27N 40°51' E 014°16'0 0.0
2018-May-19 01:27N 40°51' E 014°16'0 0.0
2018-May-19 00:45N 40°51' E 014°16'0 0.0
2018-May-19 00:15N 40°51' E 014°16'0 0.0
2018-May-18 23:57N 40°51' E 014°16'0 0.0
2018-May-18 21:39N 40°51' E 014°16'0 0.0
2018-May-18 19:09N 40°51' E 014°16'0 0.1
2018-May-18 18:55N 40°51' E 014°16'410.9
2018-May-18 18:30N 40°47' E 014°12'813.9
2018-May-18 17:56N 40°46' E 014°02'4 4.2
2018-May-18 16:57N 40°45' E 013°56'4 7.6
2018-May-18 16:24N 40°46' E 014°02'616.4
2018-May-18 16:00N 40°47' E 014°10'6 5.2
2018-May-18 14:54N 40°51' E 014°16'411.4
2018-May-18 14:30N 40°47' E 014°12'810.5
2018-May-18 13:46N 40°46' E 014°02'414.1
2018-May-18 13:30N 40°45' E 013°57'1 1.1
2018-May-18 13:00N 40°45' E 013°56'5 8.5
2018-May-18 12:28N 40°46' E 014°02'5 2.8
2018-May-18 10:43N 40°49' E 014°07'313.2
2018-May-18 10:30N 40°47' E 014°06'3 6.6
2018-May-18 10:01N 40°46' E 014°02'5 3.7
2018-May-18 08:47N 40°45' E 013°56'0 0.0
2018-May-18 08:03N 40°45' E 013°56'0 2.4
2018-May-18 08:00N 40°45' E 013°56'4 8.6
2018-May-18 07:30N 40°46' E 014°02'5 4.5
2018-May-18 06:24N 40°49' E 014°07'5 7.8
2018-May-18 05:45N 40°46' E 014°02'313.9
2018-May-18 05:30N 40°45' E 013°57'1 0.4
2018-May-18 03:30N 40°45' E 013°56'0 0.0
2018-May-18 02:57N 40°45' E 013°56'0 0.0
2018-May-18 02:30N 40°45' E 013°56'0 0.0
2018-May-18 02:00N 40°45' E 013°56'0 0.0
2018-May-18 01:27N 40°45' E 013°56'0 0.0
2018-May-18 00:45N 40°45' E 013°56'0 0.0
2018-May-18 00:27N 40°45' E 013°56'0 0.0
2018-May-18 00:00N 40°45' E 013°56'0 0.0
2018-May-17 23:27N 40°45' E 013°56'0 0.0
2018-May-17 23:00N 40°45' E 013°56'0 0.0
2018-May-17 22:27N 40°45' E 013°56'0 0.0
2018-May-17 21:33N 40°45' E 013°56'0 0.0
2018-May-17 21:30N 40°45' E 013°56'4 8.6
2018-May-17 21:00N 40°46' E 014°02'816.0
2018-May-17 20:30N 40°47' E 014°12'4 6.3
2018-May-17 19:49N 40°50' E 014°16'516.0
2018-May-17 19:30N 40°46' E 014°17'1019.4
2018-May-17 19:00N 40°36' E 014°15'3 5.2
2018-May-17 18:30N 40°33' E 014°14'815.4
2018-May-17 18:00N 40°38' E 014°23'510.3
2018-May-17 17:30N 40°35' E 014°17'2 4.7
2018-May-17 16:58N 40°33' E 014°15'918.8
2018-May-17 16:30N 40°42' E 014°17'9 5.0
2018-May-17 14:47N 40°50' E 014°16'414.8
2018-May-17 14:30N 40°47' E 014°18'1019.3
2018-May-17 14:00N 40°37' E 014°16'4 4.9
2018-May-17 13:13N 40°33' E 014°15'417.5
2018-May-17 13:00N 40°36' E 014°18'4 7.8
2018-May-17 12:28N 40°38' E 014°23'2 3.6
2018-May-17 12:00N 40°38' E 014°21'713.6
2018-May-17 11:30N 40°33' E 014°14'2 4.2
2018-May-17 11:00N 40°35' E 014°15'918.6
2018-May-17 10:30N 40°45' E 014°16'6 6.4
2018-May-17 09:34N 40°51' E 014°16'1 8.2
2018-May-17 09:31N 40°50' E 014°16'816.7
2018-May-17 09:00N 40°42' E 014°16'8 8.8
2018-May-17 08:06N 40°34' E 014°15'219.3
2018-May-17 08:00N 40°35' E 014°17'510.3
2018-May-17 07:29N 40°38' E 014°23'510.5
2018-May-17 07:00N 40°36' E 014°17'2 4.6
2018-May-17 06:30N 40°34' E 014°15'713.4
2018-May-17 05:58N 40°38' E 014°23'1 3.0
2018-May-17 05:30N 40°38' E 014°21'710.8
2018-May-17 04:51N 40°33' E 014°14'616.9
2018-May-17 04:30N 40°39' E 014°16'1018.9
2018-May-17 04:00N 40°49' E 014°17'2 4.2
2018-May-17 03:29N 40°51' E 014°16'0 0.0
2018-May-17 02:56N 40°51' E 014°16'0 0.0
2018-May-17 02:29N 40°51' E 014°16'0 0.0
2018-May-17 01:53N 40°51' E 014°16'0 0.0
2018-May-17 01:29N 40°51' E 014°16'0 0.0
2018-May-17 00:59N 40°51' E 014°16'0 0.0
2018-May-16 23:59N 40°51' E 014°16'0 0.0
2018-May-16 23:29N 40°51' E 014°16'0 0.0
2018-May-16 22:56N 40°51' E 014°16'0 0.0
2018-May-16 22:26N 40°51' E 014°16'0 0.0
2018-May-16 21:59N 40°51' E 014°16'0 0.0
2018-May-16 20:44N 40°51' E 014°16'0 0.0
2018-May-16 20:26N 40°51' E 014°16'0 0.1
2018-May-16 18:58N 40°51' E 014°16'510.7
2018-May-16 18:30N 40°47' E 014°11'713.5
2018-May-16 17:57N 40°46' E 014°02'4 9.0
2018-May-16 17:30N 40°45' E 013°56'0 0.1
2018-May-16 16:58N 40°45' E 013°56'4 8.4
2018-May-16 16:28N 40°46' E 014°02'714.9
2018-May-16 16:00N 40°47' E 014°11'5 6.0
2018-May-16 15:08N 40°51' E 014°16'0 0.3
2018-May-16 14:57N 40°51' E 014°16'511.2
2018-May-16 14:30N 40°47' E 014°11'7 9.0
2018-May-16 13:42N 40°46' E 014°02'414.0
2018-May-16 13:26N 40°45' E 013°57'0 0.8
2018-May-16 13:00N 40°45' E 013°56'4 8.9
2018-May-16 12:30N 40°46' E 014°02'5 2.5
2018-May-16 10:31N 40°49' E 014°07'0 2.4
2018-May-16 10:29N 40°49' E 014°07'5 8.8
2018-May-16 09:54N 40°46' E 014°02'4 2.7
2018-May-16 08:20N 40°45' E 013°56'1 3.2
2018-May-16 07:58N 40°45' E 013°58'3 6.9
2018-May-16 07:31N 40°46' E 014°02'5 5.1
2018-May-16 06:29N 40°49' E 014°07'5 7.3
2018-May-16 05:46N 40°46' E 014°02'413.2
2018-May-16 05:29N 40°45' E 013°57'1 0.1
2018-May-16 00:55N 40°45' E 013°56'0 0.0
2018-May-15 22:43N 40°45' E 013°56'0 0.0
2018-May-15 22:28N 40°45' E 013°56'0 0.0
2018-May-15 21:49N 40°45' E 013°56'0 0.0
2018-May-15 21:28N 40°45' E 013°56'4 6.9
2018-May-15 20:50N 40°46' E 014°02'515.7
2018-May-15 20:30N 40°46' E 014°09'713.4
2018-May-15 20:00N 40°50' E 014°16'0 0.6
2018-May-15 19:28N 40°51' E 014°16'3 6.1
2018-May-15 19:00N 40°48' E 014°17'1019.5
2018-May-15 18:30N 40°38' E 014°15'5 9.5
2018-May-15 18:00N 40°34' E 014°15'714.0
2018-May-15 17:30N 40°38' E 014°23'612.1
2018-May-15 17:00N 40°35' E 014°16'1 2.1
2018-May-15 16:30N 40°34' E 014°15'1019.2
2018-May-15 16:00N 40°43' E 014°17'7 5.9
2018-May-15 14:47N 40°51' E 014°16'412.6
2018-May-15 14:28N 40°47' E 014°18'919.2
2018-May-15 14:00N 40°38' E 014°16'5 6.7
2018-May-15 13:18N 40°33' E 014°14'414.1
2018-May-15 13:00N 40°36' E 014°18'4 5.4
2018-May-15 12:20N 40°38' E 014°23'514.6
2018-May-15 12:00N 40°36' E 014°17'3 3.8
2018-May-15 11:14N 40°33' E 014°14'416.8
2018-May-15 11:00N 40°37' E 014°16'919.0
2018-May-15 10:30N 40°46' E 014°17'4 7.9
2018-May-15 09:58N 40°51' E 014°16'3 5.8
2018-May-15 09:29N 40°48' E 014°17'919.5
2018-May-15 09:00N 40°39' E 014°16'5 9.0
2018-May-15 08:24N 40°33' E 014°15'614.1
2018-May-15 08:00N 40°38' E 014°19'2 3.4
2018-May-15 07:30N 40°39' E 014°21'714.2
2018-May-15 06:59N 40°33' E 014°14'4 9.2
2018-May-15 06:31N 40°37' E 014°18'3 6.4
2018-May-15 05:58N 40°38' E 014°23'4 8.1
2018-May-15 05:30N 40°37' E 014°18'4 6.3
2018-May-15 04:51N 40°33' E 014°14'616.7
2018-May-15 04:29N 40°39' E 014°16'918.0
2018-May-15 03:58N 40°49' E 014°17'2 4.4
2018-May-15 03:28N 40°51' E 014°16'0 0.0
2018-May-15 02:59N 40°51' E 014°16'0 0.0
2018-May-15 02:29N 40°51' E 014°16'0 0.0
2018-May-15 01:58N 40°51' E 014°16'0 0.0
2018-May-15 01:29N 40°51' E 014°16'0 0.0
2018-May-15 00:59N 40°51' E 014°16'0 0.0
2018-May-15 00:28N 40°51' E 014°16'0 0.0
2018-May-14 23:46N 40°51' E 014°16'0 0.0
2018-May-14 22:35N 40°51' E 014°16'0 0.0
2018-May-14 19:26N 40°51' E 014°16'0 0.2
2018-May-14 18:57N 40°50' E 014°16'410.0
2018-May-14 18:30N 40°47' E 014°12'816.1
2018-May-14 18:00N 40°46' E 014°02'4 8.3
2018-May-14 17:30N 40°45' E 013°56'1 1.1
2018-May-14 17:00N 40°45' E 013°57'4 7.3
2018-May-14 16:30N 40°46' E 014°02'815.8
2018-May-14 16:00N 40°47' E 014°12'5 4.6
2018-May-14 14:59N 40°50' E 014°16'612.9
2018-May-14 14:31N 40°46' E 014°10'612.2
2018-May-14 14:00N 40°46' E 014°02'4 7.7
2018-May-14 13:29N 40°45' E 013°57'1 2.8
2018-May-14 12:59N 40°46' E 013°58'4 8.1
2018-May-14 12:30N 40°46' E 014°03'4 2.3
2018-May-14 10:44N 40°49' E 014°07'313.2
2018-May-14 10:30N 40°47' E 014°06'3 5.6
2018-May-14 10:00N 40°45' E 014°02'5 2.5
2018-May-14 08:08N 40°45' E 013°56'215.1
2018-May-14 08:00N 40°46' E 013°59'3 5.6
2018-May-14 07:30N 40°46' E 014°02'5 5.4
2018-May-14 06:37N 40°49' E 014°07'0 2.1
2018-May-14 06:30N 40°49' E 014°07'5 7.7
2018-May-14 05:50N 40°46' E 014°02'4 0.6
2018-May-13 22:46N 40°45' E 013°56'0 0.0
2018-May-13 21:22N 40°45' E 013°56'4 8.5
2018-May-13 20:53N 40°46' E 014°02'513.9
2018-May-13 20:30N 40°47' E 014°08'713.0
2018-May-13 19:59N 40°50' E 014°16'0 0.5
2018-May-13 19:29N 40°51' E 014°16'4 8.2
2018-May-13 19:00N 40°47' E 014°17'1019.1
2018-May-13 18:30N 40°37' E 014°15'4 6.3
2018-May-13 17:56N 40°34' E 014°15'717.1
2018-May-13 17:30N 40°38' E 014°23'4 8.5
2018-May-13 16:59N 40°36' E 014°17'3 4.6
2018-May-13 16:25N 40°34' E 014°15'819.0
2018-May-13 16:00N 40°42' E 014°17'9 6.2
2018-May-13 14:36N 40°50' E 014°16'112.3
2018-May-13 14:29N 40°50' E 014°17'919.3
2018-May-13 14:00N 40°40' E 014°16'710.2
2018-May-13 13:18N 40°33' E 014°14'516.4
2018-May-13 13:00N 40°37' E 014°19'3 4.9
2018-May-13 12:22N 40°38' E 014°23'2 4.9
2018-May-13 12:00N 40°39' E 014°21'7 8.9
2018-May-13 11:14N 40°33' E 014°14'2 7.8
2018-May-13 11:00N 40°35' E 014°16'1019.5
2018-May-13 10:30N 40°45' E 014°17'6 6.0
2018-May-13 09:31N 40°50' E 014°16'0 3.1
2018-May-13 09:30N 40°50' E 014°16'815.8
2018-May-13 09:00N 40°43' E 014°17'917.6
2018-May-13 08:30N 40°34' E 014°15'2 3.2
2018-May-13 08:00N 40°35' E 014°17'510.2
2018-May-13 07:30N 40°38' E 014°23'4 7.6
2018-May-13 07:00N 40°37' E 014°18'4 8.6
2018-May-13 06:30N 40°33' E 014°14'715.2
2018-May-13 06:00N 40°38' E 014°22'2 3.5
2018-May-13 05:30N 40°38' E 014°19'6 9.2
2018-May-13 04:52N 40°33' E 014°14'514.4
2018-May-13 04:30N 40°38' E 014°16'815.8
2018-May-13 04:00N 40°46' E 014°16'4 7.9
2018-May-13 03:28N 40°51' E 014°16'0 0.0
2018-May-13 02:58N 40°51' E 014°16'0 0.0
2018-May-13 02:01N 40°51' E 014°16'0 0.0
2018-May-13 01:37N 40°51' E 014°16'0 0.0
2018-May-13 01:19N 40°51' E 014°16'0 0.0
2018-May-13 00:46N 40°51' E 014°16'0 0.0
2018-May-13 00:19N 40°51' E 014°16'0 0.0
2018-May-12 23:52N 40°51' E 014°16'0 0.0
2018-May-12 23:22N 40°51' E 014°16'0 0.0
2018-May-12 22:49N 40°51' E 014°16'0 0.0
2018-May-12 22:25N 40°51' E 014°16'0 0.0
2018-May-12 21:55N 40°51' E 014°16'0 0.0
2018-May-12 20:25N 40°51' E 014°16'0 0.0
2018-May-12 19:52N 40°51' E 014°16'0 0.0
2018-May-12 19:25N 40°51' E 014°16'0 0.2
2018-May-12 18:56N 40°50' E 014°16'510.8
2018-May-12 18:30N 40°47' E 014°12'811.4
2018-May-12 17:50N 40°46' E 014°02'412.8
2018-May-12 17:30N 40°45' E 013°56'0 0.2
2018-May-12 17:00N 40°45' E 013°56'4 8.1
2018-May-12 16:29N 40°46' E 014°02'714.3
2018-May-12 15:59N 40°47' E 014°11'5 5.1
2018-May-12 14:58N 40°51' E 014°16'510.6
2018-May-12 14:30N 40°47' E 014°12'810.3
2018-May-12 13:46N 40°46' E 014°02'311.7
2018-May-12 13:30N 40°45' E 013°58'1 2.0
2018-May-12 13:00N 40°45' E 013°57'5 9.1
2018-May-12 12:30N 40°46' E 014°02'5 2.3
2018-May-12 10:29N 40°49' E 014°07'5 9.1
2018-May-12 09:55N 40°46' E 014°02'4 3.0
2018-May-12 08:31N 40°45' E 013°56'0 0.1
2018-May-12 08:10N 40°45' E 013°56'211.5
2018-May-12 08:00N 40°46' E 013°59'4 8.4
2018-May-12 07:30N 40°46' E 014°04'4 3.6
2018-May-12 06:28N 40°49' E 014°07'5 8.4
2018-May-12 05:50N 40°46' E 014°02'411.7
2018-May-12 05:30N 40°45' E 013°57'0 0.4
2018-May-12 04:55N 40°45' E 013°56'0 0.0
2018-May-12 04:28N 40°45' E 013°56'0 0.0
2018-May-12 03:43N 40°45' E 013°56'0 0.0
2018-May-12 03:28N 40°45' E 013°56'0 0.0
2018-May-12 02:58N 40°45' E 013°56'0 0.0
2018-May-12 02:01N 40°45' E 013°56'0 0.0
2018-May-12 01:58N 40°45' E 013°56'0 0.0
2018-May-12 01:13N 40°45' E 013°56'0 0.0
2018-May-11 21:22N 40°45' E 013°56'411.2
2018-May-11 21:01N 40°46' E 014°02'611.4
2018-May-11 20:30N 40°47' E 014°09'612.8
2018-May-11 20:00N 40°50' E 014°16'0 0.5
2018-May-11 19:30N 40°51' E 014°16'612.1
2018-May-11 19:00N 40°45' E 014°17'918.9
2018-May-11 18:30N 40°35' E 014°15'2 3.7
2018-May-11 17:58N 40°33' E 014°14'816.6
2018-May-11 17:30N 40°38' E 014°23'4 8.9
2018-May-11 17:00N 40°36' E 014°17'3 6.1
2018-May-11 16:27N 40°33' E 014°14'817.7
2018-May-11 16:00N 40°41' E 014°17'9 8.5
2018-May-11 14:54N 40°51' E 014°16'615.6
2018-May-11 14:30N 40°45' E 014°18'918.8
2018-May-11 14:00N 40°35' E 014°15'2 2.5
2018-May-11 13:11N 40°33' E 014°15'317.8
2018-May-11 13:00N 40°36' E 014°18'4 8.1
2018-May-11 12:28N 40°38' E 014°23'4 8.3
2018-May-11 12:01N 40°36' E 014°18'4 4.7
2018-May-11 11:10N 40°33' E 014°15'215.7
2018-May-11 11:00N 40°36' E 014°16'918.1
2018-May-11 10:30N 40°45' E 014°16'6 4.7
2018-May-11 09:19N 40°50' E 014°16'516.6
2018-May-11 09:00N 40°45' E 014°18'1019.6
2018-May-11 08:30N 40°35' E 014°15'2 3.3
2018-May-11 08:00N 40°34' E 014°15'713.1
2018-May-11 07:29N 40°38' E 014°23'4 8.4
2018-May-11 07:00N 40°36' E 014°18'4 7.2
2018-May-11 06:28N 40°33' E 014°15'816.4
2018-May-11 06:00N 40°38' E 014°22'0 0.8
2018-May-11 05:30N 40°38' E 014°23'812.2
2018-May-11 04:52N 40°33' E 014°14'4 9.7
2018-May-11 04:30N 40°37' E 014°16'919.0
2018-May-11 04:00N 40°46' E 014°17'4 0.9
2018-May-10 23:21N 40°51' E 014°16'0 0.0
2018-May-10 22:57N 40°51' E 014°16'0 0.0
2018-May-10 22:27N 40°51' E 014°16'0 0.0
2018-May-10 21:57N 40°51' E 014°16'0 0.0
2018-May-10 21:30N 40°51' E 014°16'0 0.0
2018-May-10 20:54N 40°51' E 014°16'0 0.0
2018-May-10 20:30N 40°51' E 014°16'0 0.0
2018-May-10 20:00N 40°51' E 014°16'0 0.0
2018-May-10 19:15N 40°51' E 014°16'2 9.9
2018-May-10 19:00N 40°48' E 014°17'1019.1
2018-May-10 18:30N 40°39' E 014°16'5 9.4
2018-May-10 17:55N 40°34' E 014°15'717.6
2018-May-10 17:31N 40°38' E 014°22'4 8.6
2018-May-10 17:00N 40°36' E 014°17'3 5.0
2018-May-10 16:25N 40°34' E 014°15'819.1
2018-May-10 15:59N 40°42' E 014°17'911.4
2018-May-10 15:12N 40°51' E 014°16'0 0.0
2018-May-10 14:51N 40°51' E 014°16'513.6
2018-May-10 14:30N 40°46' E 014°17'918.9
2018-May-10 14:00N 40°37' E 014°15'  
Track history (hours):
 
Tides and Currents Weather Stations Pressure Air Temp Water Temp Dewpoint Dewpoint Depression Visibility Wind Speed Wind Dir Waves Ship Positions

Isola Di Capri

Last reported at 2018-May-20 13:45 UTC. Time now 2018-May-20 14:07 UTC.
Position N 40°46' E 014°02'.

Length 71 m; draft 2.3 m.

Type: Ship. MMSI: 247300000.

Date/timePositionNaut miles runAvg speedWind from/ knotsBaromVisibWave heightAir tempDewpointWater temp
2018-May-20 13:45N 40°46' E 014°02'2 9.5
2018-May-20 13:30N 40°46' E 013°59'2 3.8
2018-May-20 12:59N 40°45' E 013°56'4 8.6
2018-May-20 12:30N 40°46' E 014°02'5 5.0
2018-May-20 11:26N 40°49' E 014°07'0 0.0
2018-May-20 10:56N 40°49' E 014°07'0 0.3
2018-May-20 10:30N 40°49' E 014°07'5 8.9
2018-May-20 09:55N 40°46' E 014°02'4 8.5
2018-May-20 09:25N 40°45' E 013°56'0 0.0
2018-May-20 08:55N 40°45' E 013°56'0 0.0
2018-May-20 08:25N 40°45' E 013°56'0 0.3
2018-May-20 07:59N 40°45' E 013°56'4 9.3
2018-May-20 07:30N 40°46' E 014°02'5 4.7
2018-May-20 06:27N 40°49' E 014°07'5 7.6
2018-May-20 05:46N 40°46' E 014°02'412.6
2018-May-20 05:26N 40°45' E 013°57'0 0.2
2018-May-20 04:45N 40°45' E 013°56'0 0.0
2018-May-20 04:24N 40°45' E 013°56'0 0.0
2018-May-20 03:54N 40°45' E 013°56'0 0.0
2018-May-20 03:27N 40°45' E 013°56'0 0.0
2018-May-20 02:57N 40°45' E 013°56'0 0.0
2018-May-20 02:27N 40°45' E 013°56'0 0.0
2018-May-20 02:00N 40°45' E 013°56'0 0.0
2018-May-20 01:30N 40°45' E 013°56'0 0.0
2018-May-20 01:00N 40°45' E 013°56'0 0.0
2018-May-20 00:30N 40°45' E 013°56'0 0.0
2018-May-19 23:57N 40°45' E 013°56'0 0.0
2018-May-19 23:30N 40°45' E 013°56'0 0.0
2018-May-19 23:00N 40°45' E 013°56'0 0.0
2018-May-19 22:30N 40°45' E 013°56'0 0.0
2018-May-19 21:48N 40°45' E 013°56'2 6.2
2018-May-19 21:30N 40°46' E 013°58'612.6
2018-May-19 21:00N 40°46' E 014°07'816.1
2018-May-19 20:30N 40°50' E 014°16'1 0.9
2018-May-19 19:50N 40°51' E 014°16'0 0.0
2018-May-19 19:27N 40°51' E 014°16'614.6
2018-May-19 19:01N 40°44' E 014°17'1019.0
2018-May-19 18:30N 40°35' E 014°15'1 2.1
2018-May-19 18:00N 40°34' E 014°15'713.9
2018-May-19 17:29N 40°38' E 014°23'510.4
2018-May-19 17:00N 40°36' E 014°17'2 3.0
2018-May-19 16:27N 40°34' E 014°16'818.0
2018-May-19 16:00N 40°42' E 014°17'9 8.6
2018-May-19 15:00N 40°51' E 014°16'3 5.4
2018-May-19 14:30N 40°48' E 014°17'917.9
2018-May-19 14:00N 40°39' E 014°16'610.4
2018-May-19 13:25N 40°33' E 014°14'4 9.5
2018-May-19 13:00N 40°36' E 014°18'4 7.0
2018-May-19 12:28N 40°38' E 014°23'2 3.8
2018-May-19 12:01N 40°38' E 014°21'7 7.9
2018-May-19 11:08N 40°33' E 014°14'1 8.2
2018-May-19 11:00N 40°34' E 014°15'918.9
2018-May-19 10:30N 40°44' E 014°17'7 6.4
2018-May-19 09:26N 40°51' E 014°16'715.3
2018-May-19 09:00N 40°44' E 014°17'919.2
2018-May-19 08:30N 40°35' E 014°15'1 2.2
2018-May-19 08:01N 40°34' E 014°15'714.0
2018-May-19 07:29N 40°38' E 014°23'4 8.4
2018-May-19 07:00N 40°36' E 014°18'4 6.9
2018-May-19 06:26N 40°33' E 014°14'715.5
2018-May-19 06:00N 40°38' E 014°20'2 3.6
2018-May-19 05:30N 40°38' E 014°23'810.0
2018-May-19 04:44N 40°33' E 014°14'415.6
2018-May-19 04:30N 40°37' E 014°16'1019.0
2018-May-19 04:00N 40°46' E 014°17'4 7.3
2018-May-19 03:24N 40°51' E 014°16'0 0.0
2018-May-19 02:39N 40°51' E 014°16'0 0.0
2018-May-19 02:27N 40°51' E 014°16'0 0.0
2018-May-19 01:27N 40°51' E 014°16'0 0.0
2018-May-19 00:45N 40°51' E 014°16'0 0.0
2018-May-19 00:15N 40°51' E 014°16'0 0.0
2018-May-18 23:57N 40°51' E 014°16'0 0.0
2018-May-18 21:39N 40°51' E 014°16'0 0.0
2018-May-18 19:09N 40°51' E 014°16'0 0.1
2018-May-18 18:55N 40°51' E 014°16'410.9
2018-May-18 18:30N 40°47' E 014°12'813.9
2018-May-18 17:56N 40°46' E 014°02'4 4.2
2018-May-18 16:57N 40°45' E 013°56'4 7.6
2018-May-18 16:24N 40°46' E 014°02'616.4
2018-May-18 16:00N 40°47' E 014°10'6 5.2
2018-May-18 14:54N 40°51' E 014°16'411.4
2018-May-18 14:30N 40°47' E 014°12'810.5
2018-May-18 13:46N 40°46' E 014°02'414.1
2018-May-18 13:30N 40°45' E 013°57'1 1.1
2018-May-18 13:00N 40°45' E 013°56'5 8.5
2018-May-18 12:28N 40°46' E 014°02'5 2.8
2018-May-18 10:43N 40°49' E 014°07'313.2
2018-May-18 10:30N 40°47' E 014°06'3 6.6
2018-May-18 10:01N 40°46' E 014°02'5 3.7
2018-May-18 08:47N 40°45' E 013°56'0 0.0
2018-May-18 08:03N 40°45' E 013°56'0 2.4
2018-May-18 08:00N 40°45' E 013°56'4 8.6
2018-May-18 07:30N 40°46' E 014°02'5 4.5
2018-May-18 06:24N 40°49' E 014°07'5 7.8
2018-May-18 05:45N 40°46' E 014°02'313.9
2018-May-18 05:30N 40°45' E 013°57'1 0.4
2018-May-18 03:30N 40°45' E 013°56'0 0.0
2018-May-18 02:57N 40°45' E 013°56'0 0.0
2018-May-18 02:30N 40°45' E 013°56'0 0.0
2018-May-18 02:00N 40°45' E 013°56'0 0.0
2018-May-18 01:27N 40°45' E 013°56'0 0.0
2018-May-18 00:45N 40°45' E 013°56'0 0.0
2018-May-18 00:27N 40°45' E 013°56'0 0.0
2018-May-18 00:00N 40°45' E 013°56'0 0.0
2018-May-17 23:27N 40°45' E 013°56'0 0.0
2018-May-17 23:00N 40°45' E 013°56'0 0.0
2018-May-17 22:27N 40°45' E 013°56'0 0.0
2018-May-17 21:33N 40°45' E 013°56'0 0.0
2018-May-17 21:30N 40°45' E 013°56'4 8.6
2018-May-17 21:00N 40°46' E 014°02'816.0
2018-May-17 20:30N 40°47' E 014°12'4 6.3
2018-May-17 19:49N 40°50' E 014°16'516.0
2018-May-17 19:30N 40°46' E 014°17'1019.4
2018-May-17 19:00N 40°36' E 014°15'3 5.2
2018-May-17 18:30N 40°33' E 014°14'815.4
2018-May-17 18:00N 40°38' E 014°23'510.3
2018-May-17 17:30N 40°35' E 014°17'2 4.7
2018-May-17 16:58N 40°33' E 014°15'918.8
2018-May-17 16:30N 40°42' E 014°17'9 5.0
2018-May-17 14:47N 40°50' E 014°16'414.8
2018-May-17 14:30N 40°47' E 014°18'1019.3
2018-May-17 14:00N 40°37' E 014°16'4 4.9
2018-May-17 13:13N 40°33' E 014°15'417.5
2018-May-17 13:00N 40°36' E 014°18'4 7.8
2018-May-17 12:28N 40°38' E 014°23'2 3.6
2018-May-17 12:00N 40°38' E 014°21'713.6
2018-May-17 11:30N 40°33' E 014°14'2 4.2
2018-May-17 11:00N 40°35' E 014°15'918.6
2018-May-17 10:30N 40°45' E 014°16'6 6.4
2018-May-17 09:34N 40°51' E 014°16'1 8.2
2018-May-17 09:31N 40°50' E 014°16'816.7
2018-May-17 09:00N 40°42' E 014°16'8 8.8
2018-May-17 08:06N 40°34' E 014°15'219.3
2018-May-17 08:00N 40°35' E 014°17'510.3
2018-May-17 07:29N 40°38' E 014°23'510.5
2018-May-17 07:00N 40°36' E 014°17'2 4.6
2018-May-17 06:30N 40°34' E 014°15'713.4
2018-May-17 05:58N 40°38' E 014°23'1 3.0
2018-May-17 05:30N 40°38' E 014°21'710.8
2018-May-17 04:51N 40°33' E 014°14'616.9
2018-May-17 04:30N 40°39' E 014°16'1018.9
2018-May-17 04:00N 40°49' E 014°17'2 4.2
2018-May-17 03:29N 40°51' E 014°16'0 0.0
2018-May-17 02:56N 40°51' E 014°16'0 0.0
2018-May-17 02:29N 40°51' E 014°16'0 0.0
2018-May-17 01:53N 40°51' E 014°16'0 0.0
2018-May-17 01:29N 40°51' E 014°16'0 0.0
2018-May-17 00:59N 40°51' E 014°16'0 0.0
2018-May-16 23:59N 40°51' E 014°16'0 0.0
2018-May-16 23:29N 40°51' E 014°16'0 0.0
2018-May-16 22:56N 40°51' E 014°16'0 0.0
2018-May-16 22:26N 40°51' E 014°16'0 0.0
2018-May-16 21:59N 40°51' E 014°16'0 0.0
2018-May-16 20:44N 40°51' E 014°16'0 0.0
2018-May-16 20:26N 40°51' E 014°16'0 0.1
2018-May-16 18:58N 40°51' E 014°16'510.7
2018-May-16 18:30N 40°47' E 014°11'713.5
2018-May-16 17:57N 40°46' E 014°02'4 9.0
2018-May-16 17:30N 40°45' E 013°56'0 0.1
2018-May-16 16:58N 40°45' E 013°56'4 8.4
2018-May-16 16:28N 40°46' E 014°02'714.9
2018-May-16 16:00N 40°47' E 014°11'5 6.0
2018-May-16 15:08N 40°51' E 014°16'0 0.3
2018-May-16 14:57N 40°51' E 014°16'511.2
2018-May-16 14:30N 40°47' E 014°11'7 9.0
2018-May-16 13:42N 40°46' E 014°02'414.0
2018-May-16 13:26N 40°45' E 013°57'0 0.8
2018-May-16 13:00N 40°45' E 013°56'4 8.9
2018-May-16 12:30N 40°46' E 014°02'5 2.5
2018-May-16 10:31N 40°49' E 014°07'0 2.4
2018-May-16 10:29N 40°49' E 014°07'5 8.8
2018-May-16 09:54N 40°46' E 014°02'4 2.7
2018-May-16 08:20N 40°45' E 013°56'1 3.2
2018-May-16 07:58N 40°45' E 013°58'3 6.9
2018-May-16 07:31N 40°46' E 014°02'5 5.1
2018-May-16 06:29N 40°49' E 014°07'5 7.3
2018-May-16 05:46N 40°46' E 014°02'413.2
2018-May-16 05:29N 40°45' E 013°57'1 0.1
2018-May-16 00:55N 40°45' E 013°56'0 0.0
2018-May-15 22:43N 40°45' E 013°56'0 0.0
2018-May-15 22:28N 40°45' E 013°56'0 0.0
2018-May-15 21:49N 40°45' E 013°56'0 0.0
2018-May-15 21:28N 40°45' E 013°56'4 6.9
2018-May-15 20:50N 40°46' E 014°02'515.7
2018-May-15 20:30N 40°46' E 014°09'713.4
2018-May-15 20:00N 40°50' E 014°16'0 0.6
2018-May-15 19:28N 40°51' E 014°16'3 6.1
2018-May-15 19:00N 40°48' E 014°17'1019.5
2018-May-15 18:30N 40°38' E 014°15'5 9.5
2018-May-15 18:00N 40°34' E 014°15'714.0
2018-May-15 17:30N 40°38' E 014°23'612.1
2018-May-15 17:00N 40°35' E 014°16'1 2.1
2018-May-15 16:30N 40°34' E 014°15'1019.2
2018-May-15 16:00N 40°43' E 014°17'7 5.9
2018-May-15 14:47N 40°51' E 014°16'412.6
2018-May-15 14:28N 40°47' E 014°18'919.2
2018-May-15 14:00N 40°38' E 014°16'5 6.7
2018-May-15 13:18N 40°33' E 014°14'414.1
2018-May-15 13:00N 40°36' E 014°18'4 5.4
2018-May-15 12:20N 40°38' E 014°23'514.6
2018-May-15 12:00N 40°36' E 014°17'3 3.8
2018-May-15 11:14N 40°33' E 014°14'416.8
2018-May-15 11:00N 40°37' E 014°16'919.0
2018-May-15 10:30N 40°46' E 014°17'4 7.9
2018-May-15 09:58N 40°51' E 014°16'3 5.8
2018-May-15 09:29N 40°48' E 014°17'919.5
2018-May-15 09:00N 40°39' E 014°16'5 9.0
2018-May-15 08:24N 40°33' E 014°15'614.1
2018-May-15 08:00N 40°38' E 014°19'2 3.4
2018-May-15 07:30N 40°39' E 014°21'714.2
2018-May-15 06:59N 40°33' E 014°14'4 9.2
2018-May-15 06:31N 40°37' E 014°18'3 6.4
2018-May-15 05:58N 40°38' E 014°23'4 8.1
2018-May-15 05:30N 40°37' E 014°18'4 6.3
2018-May-15 04:51N 40°33' E 014°14'616.7
2018-May-15 04:29N 40°39' E 014°16'918.0
2018-May-15 03:58N 40°49' E 014°17'2 4.4
2018-May-15 03:28N 40°51' E 014°16'0 0.0
2018-May-15 02:59N 40°51' E 014°16'0 0.0
2018-May-15 02:29N 40°51' E 014°16'0 0.0
2018-May-15 01:58N 40°51' E 014°16'0 0.0
2018-May-15 01:29N 40°51' E 014°16'0 0.0
2018-May-15 00:59N 40°51' E 014°16'0 0.0
2018-May-15 00:28N 40°51' E 014°16'0 0.0
2018-May-14 23:46N 40°51' E 014°16'0 0.0
2018-May-14 22:35N 40°51' E 014°16'0 0.0
2018-May-14 19:26N 40°51' E 014°16'0 0.2
2018-May-14 18:57N 40°50' E 014°16'410.0
2018-May-14 18:30N 40°47' E 014°12'816.1
2018-May-14 18:00N 40°46' E 014°02'4 8.3
2018-May-14 17:30N 40°45' E 013°56'1 1.1
2018-May-14 17:00N 40°45' E 013°57'4 7.3
2018-May-14 16:30N 40°46' E 014°02'815.8
2018-May-14 16:00N 40°47' E 014°12'5 4.6
2018-May-14 14:59N 40°50' E 014°16'612.9
2018-May-14 14:31N 40°46' E 014°10'612.2
2018-May-14 14:00N 40°46' E 014°02'4 7.7
2018-May-14 13:29N 40°45' E 013°57'1 2.8
2018-May-14 12:59N 40°46' E 013°58'4 8.1
2018-May-14 12:30N 40°46' E 014°03'4 2.3
2018-May-14 10:44N 40°49' E 014°07'313.2
2018-May-14 10:30N 40°47' E 014°06'3 5.6
2018-May-14 10:00N 40°45' E 014°02'5 2.5
2018-May-14 08:08N 40°45' E 013°56'215.1
2018-May-14 08:00N 40°46' E 013°59'3 5.6
2018-May-14 07:30N 40°46' E 014°02'5 5.4
2018-May-14 06:37N 40°49' E 014°07'0 2.1
2018-May-14 06:30N 40°49' E 014°07'5 7.7
2018-May-14 05:50N 40°46' E 014°02'4 0.6
2018-May-13 22:46N 40°45' E 013°56'0 0.0
2018-May-13 21:22N 40°45' E 013°56'4 8.5
2018-May-13 20:53N 40°46' E 014°02'513.9
2018-May-13 20:30N 40°47' E 014°08'713.0
2018-May-13 19:59N 40°50' E 014°16'0 0.5
2018-May-13 19:29N 40°51' E 014°16'4 8.2
2018-May-13 19:00N 40°47' E 014°17'1019.1
2018-May-13 18:30N 40°37' E 014°15'4 6.3
2018-May-13 17:56N 40°34' E 014°15'717.1
2018-May-13 17:30N 40°38' E 014°23'4 8.5
2018-May-13 16:59N 40°36' E 014°17'3 4.6
2018-May-13 16:25N 40°34' E 014°15'819.0
2018-May-13 16:00N 40°42' E 014°17'9 6.2
2018-May-13 14:36N 40°50' E 014°16'112.3
2018-May-13 14:29N 40°50' E 014°17'919.3
2018-May-13 14:00N 40°40' E 014°16'710.2
2018-May-13 13:18N 40°33' E 014°14'516.4
2018-May-13 13:00N 40°37' E 014°19'3 4.9
2018-May-13 12:22N 40°38' E 014°23'2 4.9
2018-May-13 12:00N 40°39' E 014°21'7 8.9
2018-May-13 11:14N 40°33' E 014°14'2 7.8
2018-May-13 11:00N 40°35' E 014°16'1019.5
2018-May-13 10:30N 40°45' E 014°17'6 6.0
2018-May-13 09:31N 40°50' E 014°16'0 3.1
2018-May-13 09:30N 40°50' E 014°16'815.8
2018-May-13 09:00N 40°43' E 014°17'917.6
2018-May-13 08:30N 40°34' E 014°15'2 3.2
2018-May-13 08:00N 40°35' E 014°17'510.2
2018-May-13 07:30N 40°38' E 014°23'4 7.6
2018-May-13 07:00N 40°37' E 014°18'4 8.6
2018-May-13 06:30N 40°33' E 014°14'715.2
2018-May-13 06:00N 40°38' E 014°22'2 3.5
2018-May-13 05:30N 40°38' E 014°19'6 9.2
2018-May-13 04:52N 40°33' E 014°14'514.4
2018-May-13 04:30N 40°38' E 014°16'815.8
2018-May-13 04:00N 40°46' E 014°16'4 7.9
2018-May-13 03:28N 40°51' E 014°16'0 0.0
2018-May-13 02:58N 40°51' E 014°16'0 0.0
2018-May-13 02:01N 40°51' E 014°16'0 0.0
2018-May-13 01:37N 40°51' E 014°16'0 0.0
2018-May-13 01:19N 40°51' E 014°16'0 0.0
2018-May-13 00:46N 40°51' E 014°16'0 0.0
2018-May-13 00:19N 40°51' E 014°16'0 0.0
2018-May-12 23:52N 40°51' E 014°16'0 0.0
2018-May-12 23:22N 40°51' E 014°16'0 0.0
2018-May-12 22:49N 40°51' E 014°16'0 0.0
2018-May-12 22:25N 40°51' E 014°16'0 0.0
2018-May-12 21:55N 40°51' E 014°16'0 0.0
2018-May-12 20:25N 40°51' E 014°16'0 0.0
2018-May-12 19:52N 40°51' E 014°16'0 0.0
2018-May-12 19:25N 40°51' E 014°16'0 0.2
2018-May-12 18:56N 40°50' E 014°16'510.8
2018-May-12 18:30N 40°47' E 014°12'811.4
2018-May-12 17:50N 40°46' E 014°02'412.8
2018-May-12 17:30N 40°45' E 013°56'0 0.2
2018-May-12 17:00N 40°45' E 013°56'4 8.1
2018-May-12 16:29N 40°46' E 014°02'714.3
2018-May-12 15:59N 40°47' E 014°11'5 5.1
2018-May-12 14:58N 40°51' E 014°16'510.6
2018-May-12 14:30N 40°47' E 014°12'810.3
2018-May-12 13:46N 40°46' E 014°02'311.7
2018-May-12 13:30N 40°45' E 013°58'1 2.0
2018-May-12 13:00N 40°45' E 013°57'5 9.1
2018-May-12 12:30N 40°46' E 014°02'5 2.3
2018-May-12 10:29N 40°49' E 014°07'5 9.1
2018-May-12 09:55N 40°46' E 014°02'4 3.0
2018-May-12 08:31N 40°45' E 013°56'0 0.1
2018-May-12 08:10N 40°45' E 013°56'211.5
2018-May-12 08:00N 40°46' E 013°59'4 8.4
2018-May-12 07:30N 40°46' E 014°04'4 3.6
2018-May-12 06:28N 40°49' E 014°07'5 8.4
2018-May-12 05:50N 40°46' E 014°02'411.7
2018-May-12 05:30N 40°45' E 013°57'0 0.4
2018-May-12 04:55N 40°45' E 013°56'0 0.0
2018-May-12 04:28N 40°45' E 013°56'0 0.0
2018-May-12 03:43N 40°45' E 013°56'0 0.0
2018-May-12 03:28N 40°45' E 013°56'0 0.0
2018-May-12 02:58N 40°45' E 013°56'0 0.0
2018-May-12 02:01N 40°45' E 013°56'0 0.0
2018-May-12 01:58N 40°45' E 013°56'0 0.0
2018-May-12 01:13N 40°45' E 013°56'0 0.0
2018-May-11 21:22N 40°45' E 013°56'411.2
2018-May-11 21:01N 40°46' E 014°02'611.4
2018-May-11 20:30N 40°47' E 014°09'612.8
2018-May-11 20:00N 40°50' E 014°16'0 0.5
2018-May-11 19:30N 40°51' E 014°16'612.1
2018-May-11 19:00N 40°45' E 014°17'918.9
2018-May-11 18:30N 40°35' E 014°15'2 3.7
2018-May-11 17:58N 40°33' E 014°14'816.6
2018-May-11 17:30N 40°38' E 014°23'4 8.9
2018-May-11 17:00N 40°36' E 014°17'3 6.1
2018-May-11 16:27N 40°33' E 014°14'817.7
2018-May-11 16:00N 40°41' E 014°17'9 8.5
2018-May-11 14:54N 40°51' E 014°16'615.6
2018-May-11 14:30N 40°45' E 014°18'918.8
2018-May-11 14:00N 40°35' E 014°15'2 2.5
2018-May-11 13:11N 40°33' E 014°15'317.8
2018-May-11 13:00N 40°36' E 014°18'4 8.1
2018-May-11 12:28N 40°38' E 014°23'4 8.3
2018-May-11 12:01N 40°36' E 014°18'4 4.7
2018-May-11 11:10N 40°33' E 014°15'215.7
2018-May-11 11:00N 40°36' E 014°16'918.1
2018-May-11 10:30N 40°45' E 014°16'6 4.7
2018-May-11 09:19N 40°50' E 014°16'516.6
2018-May-11 09:00N 40°45' E 014°18'1019.6
2018-May-11 08:30N 40°35' E 014°15'2 3.3
2018-May-11 08:00N 40°34' E 014°15'713.1
2018-May-11 07:29N 40°38' E 014°23'4 8.4
2018-May-11 07:00N 40°36' E 014°18'4 7.2
2018-May-11 06:28N 40°33' E 014°15'816.4
2018-May-11 06:00N 40°38' E 014°22'0 0.8
2018-May-11 05:30N 40°38' E 014°23'812.2
2018-May-11 04:52N 40°33' E 014°14'4 9.7
2018-May-11 04:30N 40°37' E 014°16'919.0
2018-May-11 04:00N 40°46' E 014°17'4 0.9
2018-May-10 23:21N 40°51' E 014°16'0 0.0
2018-May-10 22:57N 40°51' E 014°16'0 0.0
2018-May-10 22:27N 40°51' E 014°16'0 0.0
2018-May-10 21:57N 40°51' E 014°16'0 0.0
2018-May-10 21:30N 40°51' E 014°16'0 0.0
2018-May-10 20:54N 40°51' E 014°16'0 0.0
2018-May-10 20:30N 40°51' E 014°16'0 0.0
2018-May-10 20:00N 40°51' E 014°16'0 0.0
2018-May-10 19:15N 40°51' E 014°16'2 9.9
2018-May-10 19:00N 40°48' E 014°17'1019.1
2018-May-10 18:30N 40°39' E 014°16'5 9.4
2018-May-10 17:55N 40°34' E 014°15'717.6
2018-May-10 17:31N 40°38' E 014°22'4 8.6
2018-May-10 17:00N 40°36' E 014°17'3 5.0
2018-May-10 16:25N 40°34' E 014°15'819.1
2018-May-10 15:59N 40°42' E 014°17'911.4
2018-May-10 15:12N 40°51' E 014°16'0 0.0
2018-May-10 14:51N 40°51' E 014°16'513.6
2018-May-10 14:30N 40°46' E 014°17'918.9
2018-May-10 14:00N 40°37' E 014°15'  

Dump ship's entire track history